createdAt,value
2023-02-27T00:00:25.135Z,3.00
2023-02-27T00:02:53.093Z,3.00
2023-02-27T00:05:20.487Z,6.50
2023-02-27T00:07:47.359Z,7.75
2023-02-27T00:10:15.087Z,5.00
2023-02-27T00:12:43.045Z,5.25
2023-02-27T00:15:13.834Z,3.50
2023-02-27T00:17:41.028Z,6.00
2023-02-27T00:20:11.838Z,3.50
2023-02-27T00:22:38.781Z,3.50
2023-02-27T00:25:06.569Z,3.50
2023-02-27T00:27:33.627Z,2.00
2023-02-27T00:30:00.580Z,3.00
2023-02-27T00:32:29.157Z,3.00
2023-02-27T00:34:56.284Z,5.00
2023-02-27T00:37:23.097Z,4.00
2023-02-27T00:39:50.236Z,4.50
2023-02-27T00:42:17.388Z,5.50
2023-02-27T00:44:44.141Z,3.25
2023-02-27T00:47:11.018Z,2.00
2023-02-27T00:49:39.275Z,5.50
2023-02-27T00:52:06.192Z,6.00
2023-02-27T00:54:33.117Z,2.00
2023-02-27T00:56:59.951Z,5.75
2023-02-27T00:59:26.869Z,6.50
2023-02-27T01:01:53.792Z,5.25
2023-02-27T01:04:20.938Z,1.25
2023-02-27T01:06:49.420Z,5.75
2023-02-27T01:09:16.743Z,4.00
2023-02-27T01:11:43.568Z,6.50
2023-02-27T01:14:10.724Z,2.25
2023-02-27T01:16:37.821Z,6.00
2023-02-27T01:19:05.239Z,7.00
2023-02-27T01:21:32.458Z,2.50
2023-02-27T01:24:02.403Z,5.50
2023-02-27T01:26:29.542Z,6.25
2023-02-27T01:28:56.308Z,3.00
2023-02-27T01:31:25.725Z,5.25
2023-02-27T01:33:52.663Z,7.00
2023-02-27T01:36:19.775Z,9.00
2023-02-27T01:38:46.932Z,6.50
2023-02-27T01:41:15.329Z,3.00
2023-02-27T01:43:58.339Z,5.50
2023-02-27T01:46:26.127Z,6.25
2023-02-27T01:48:58.673Z,9.75
2023-02-27T01:51:30.248Z,9.00
2023-02-27T01:53:58.276Z,10.00
2023-02-27T01:56:30.104Z,10.00
2023-02-27T01:59:00.700Z,11.00
2023-02-27T02:01:29.557Z,15.50
2023-02-27T02:04:03.729Z,13.75
2023-02-27T02:06:34.937Z,11.50
2023-02-27T02:09:02.703Z,17.25
2023-02-27T02:11:30.918Z,14.75
2023-02-27T02:13:59.557Z,11.50
2023-02-27T02:16:58.422Z,11.25
2023-02-27T02:20:03.816Z,9.50
2023-02-27T02:23:11.710Z,14.00
2023-02-27T02:26:09.899Z,10.00
2023-02-27T02:29:22.306Z,10.25
2023-02-27T02:32:26.879Z,14.50
2023-02-27T02:35:38.122Z,13.00
2023-02-27T02:38:32.186Z,19.50
2023-02-27T02:41:08.831Z,19.25
2023-02-27T02:43:46.010Z,27.50
2023-02-27T02:46:18.258Z,54.67
2023-02-27T02:48:52.499Z,5.75
2023-02-27T02:51:30.963Z,5.00
2023-02-27T02:54:05.846Z,6.25
2023-02-27T02:56:37.565Z,8.75
2023-02-27T02:59:11.976Z,17.50
2023-02-27T03:01:44.707Z,12.50
2023-02-27T03:04:18.433Z,13.00
2023-02-27T03:06:52.512Z,21.25
2023-02-27T03:09:26.456Z,37.00
2023-02-27T03:11:57.708Z,20.25
2023-02-27T03:14:33.773Z,20.75
2023-02-27T03:17:06.363Z,14.00
2023-02-27T03:19:40.369Z,15.25
2023-02-27T03:22:11.303Z,19.25
2023-02-27T03:24:45.667Z,14.00
2023-02-27T03:27:14.306Z,11.00
2023-02-27T03:29:46.393Z,12.50
2023-02-27T03:32:17.729Z,16.50
2023-02-27T03:34:45.387Z,13.00
2023-02-27T03:37:23.320Z,15.75
2023-02-27T03:39:56.547Z,15.00
2023-02-27T03:42:32.341Z,11.75
2023-02-27T03:45:04.607Z,14.50
2023-02-27T03:47:32.743Z,11.75
2023-02-27T03:49:59.616Z,20.75
2023-02-27T03:52:29.502Z,13.00
2023-02-27T03:55:03.428Z,12.25
2023-02-27T03:57:32.253Z,16.50
2023-02-27T03:59:59.420Z,15.50
2023-02-27T04:02:27.866Z,15.00
2023-02-27T04:04:54.688Z,14.00
2023-02-27T04:07:35.926Z,17.00
2023-02-27T04:10:32.767Z,16.50
2023-02-27T04:13:23.306Z,13.25
2023-02-27T04:16:10.621Z,18.75
2023-02-27T04:18:57.028Z,19.00
2023-02-27T04:21:31.752Z,26.25
2023-02-27T04:24:06.194Z,21.25
2023-02-27T04:26:42.506Z,18.00
2023-02-27T04:29:17.115Z,19.25
2023-02-27T04:31:49.759Z,15.75
2023-02-27T04:34:23.573Z,19.50
2023-02-27T04:36:57.148Z,14.00
2023-02-27T04:39:28.951Z,16.75
2023-02-27T04:42:01.304Z,11.00
2023-02-27T04:44:30.720Z,11.75
2023-02-27T04:47:00.544Z,12.25
2023-02-27T04:49:31.746Z,17.25
2023-02-27T04:52:05.133Z,14.25
2023-02-27T04:54:36.174Z,14.50
2023-02-27T04:57:10.078Z,12.25
2023-02-27T04:59:43.408Z,16.75
2023-02-27T05:02:14.586Z,14.75
2023-02-27T05:04:43.884Z,12.00
2023-02-27T05:07:17.362Z,6.00
2023-02-27T05:09:49.667Z,17.75
2023-02-27T05:12:23.181Z,13.50
2023-02-27T05:14:54.586Z,5.25
2023-02-27T05:17:25.861Z,4.75
2023-02-27T05:19:53.292Z,3.50
2023-02-27T05:22:28.414Z,8.00
2023-02-27T05:25:02.474Z,12.00
2023-02-27T05:27:48.772Z,5.75
2023-02-27T05:30:22.150Z,6.00
2023-02-27T05:32:55.462Z,3.00
2023-02-27T05:35:29.428Z,2.75
2023-02-27T05:38:04.655Z,13.25
2023-02-27T05:40:35.567Z,15.75
2023-02-27T05:43:09.704Z,5.75
2023-02-27T05:45:40.481Z,8.75
2023-02-27T05:48:10.393Z,12.75
2023-02-27T05:50:39.030Z,7.50
2023-02-27T05:53:09.781Z,10.50
2023-02-27T05:55:39.729Z,6.00
2023-02-27T05:58:16.766Z,5.00
2023-02-27T06:00:47.922Z,5.00
2023-02-27T06:03:15.406Z,15.50
2023-02-27T06:05:43.641Z,3.50
2023-02-27T06:08:11.019Z,6.00
2023-02-27T06:10:38.537Z,5.00
2023-02-27T06:13:05.220Z,4.00
2023-02-27T06:15:33.685Z,3.00
2023-02-27T06:18:00.543Z,7.50
2023-02-27T06:20:27.876Z,8.00
2023-02-27T06:22:54.687Z,3.50
2023-02-27T06:25:21.617Z,5.25
2023-02-27T06:27:48.513Z,13.50
2023-02-27T06:30:15.795Z,7.00
2023-02-27T06:32:45.543Z,5.75
2023-02-27T06:35:12.303Z,7.00
2023-02-27T06:37:39.172Z,10.00
2023-02-27T06:40:08.279Z,5.50
2023-02-27T06:42:35.331Z,12.50
2023-02-27T06:45:02.153Z,7.50
2023-02-27T06:47:28.936Z,7.00
2023-02-27T06:49:57.370Z,13.75
2023-02-27T06:52:24.187Z,9.00
2023-02-27T06:54:51.208Z,20.00
2023-02-27T06:57:18.408Z,11.75
2023-02-27T06:59:45.361Z,9.25
2023-02-27T07:02:13.221Z,7.00
2023-02-27T07:04:40.375Z,8.00
2023-02-27T07:07:33.908Z,15.75
2023-02-27T07:09:56.608Z,6.50
2023-02-27T07:12:23.439Z,17.75
2023-02-27T07:14:50.324Z,14.75
2023-02-27T07:17:17.263Z,6.00
2023-02-27T07:19:44.091Z,12.25
2023-02-27T07:22:12.352Z,6.25
2023-02-27T07:24:39.160Z,6.75
2023-02-27T07:27:06.304Z,7.50
2023-02-27T07:29:33.116Z,9.25
2023-02-27T07:32:00.054Z,6.00
2023-02-27T07:34:27.088Z,9.00
2023-02-27T07:36:53.918Z,10.00
2023-02-27T07:39:22.422Z,10.25
2023-02-27T07:41:49.885Z,10.50
2023-02-27T07:44:17.166Z,7.00
2023-02-27T07:46:44.484Z,6.75
2023-02-27T07:49:11.908Z,8.00
2023-02-27T07:51:39.012Z,5.25
2023-02-27T07:54:05.990Z,8.50
2023-02-27T07:56:34.553Z,5.50
2023-02-27T07:59:01.534Z,3.00
2023-02-27T08:01:28.763Z,7.25
2023-02-27T08:03:56.141Z,7.00
2023-02-27T08:06:23.108Z,8.25
2023-02-27T08:08:50.277Z,6.25
2023-02-27T08:11:17.331Z,4.50
2023-02-27T08:14:00.203Z,7.25
2023-02-27T08:16:28.332Z,5.25
2023-02-27T08:18:55.596Z,5.50
2023-02-27T08:21:22.685Z,3.50
2023-02-27T08:23:49.632Z,6.00
2023-02-27T08:26:16.845Z,5.00
2023-02-27T08:28:45.188Z,5.25
2023-02-27T08:31:12.357Z,6.50
2023-02-27T08:33:39.564Z,4.50
2023-02-27T08:36:07.147Z,8.25
2023-02-27T08:38:34.376Z,2.00
2023-02-27T08:41:01.134Z,2.25
2023-02-27T08:43:28.245Z,5.00
2023-02-27T08:45:56.724Z,1.50
2023-02-27T08:48:23.909Z,3.00
2023-02-27T08:50:51.453Z,2.25
2023-02-27T08:53:18.780Z,5.00
2023-02-27T08:55:49.891Z,7.25
2023-02-27T08:58:18.420Z,10.75
2023-02-27T09:00:46.350Z,6.75
2023-02-27T09:03:15.926Z,7.50
2023-02-27T09:05:43.589Z,5.50
2023-02-27T09:08:11.079Z,4.25
2023-02-27T09:10:38.574Z,4.00
2023-02-27T09:13:06.561Z,0.50
2023-02-27T09:15:33.962Z,4.00
2023-02-27T09:18:01.428Z,1.00
2023-02-27T09:20:30.436Z,0.50
2023-02-27T09:22:58.047Z,0.00
2023-02-27T09:25:26.102Z,1.00
2023-02-27T09:27:53.038Z,1.00
2023-02-27T09:30:20.246Z,11.75
2023-02-27T09:32:47.109Z,5.75
2023-02-27T09:35:13.954Z,14.00
2023-02-27T09:37:43.389Z,11.50
2023-02-27T09:40:18.284Z,9.25
2023-02-27T09:42:46.571Z,3.50
2023-02-27T09:45:20.956Z,2.00
2023-02-27T09:47:51.775Z,0.25
2023-02-27T09:50:31.547Z,6.00
2023-02-27T09:53:00.863Z,7.50
2023-02-27T09:55:33.010Z,18.75
2023-02-27T09:58:06.854Z,10.50
2023-02-27T10:00:51.550Z,18.25
2023-02-27T10:03:49.479Z,50.75
2023-02-27T10:06:26.001Z,43.50
2023-02-27T10:09:07.777Z,19.50
2023-02-27T10:11:44.788Z,7.75
2023-02-27T10:14:24.469Z,4.25
2023-02-27T10:16:54.179Z,9.50
2023-02-27T10:19:28.475Z,4.00
2023-02-27T10:21:59.408Z,7.00
2023-02-27T10:24:32.981Z,12.25
2023-02-27T10:27:04.692Z,3.75
2023-02-27T10:29:34.368Z,3.00
2023-02-27T10:32:05.955Z,3.00
2023-02-27T10:34:35.666Z,2.75
2023-02-27T10:37:06.387Z,2.50
2023-02-27T10:39:45.231Z,7.25
2023-02-27T10:42:16.535Z,7.75
2023-02-27T10:44:43.282Z,2.00
2023-02-27T10:47:14.118Z,3.00
2023-02-27T10:49:43.163Z,2.00
2023-02-27T10:52:12.877Z,18.25
2023-02-27T10:54:43.050Z,17.50
2023-02-27T10:57:25.680Z,19.75
2023-02-27T10:59:56.680Z,4.50
2023-02-27T11:02:29.853Z,33.00
2023-02-27T11:05:01.314Z,9.50
2023-02-27T11:07:33.466Z,14.25
2023-02-27T11:10:05.308Z,39.50
2023-02-27T11:12:35.603Z,14.00
2023-02-27T11:15:22.176Z,28.75
2023-02-27T11:17:49.229Z,18.00
2023-02-27T11:20:36.148Z,50.67
2023-02-27T11:23:05.443Z,17.00
2023-02-27T11:25:36.093Z,6.75
2023-02-27T11:28:15.475Z,1.50
2023-02-27T11:30:43.816Z,0.00
2023-02-27T11:33:20.326Z,1.00
2023-02-27T11:35:57.122Z,1.75
2023-02-27T11:38:28.361Z,7.75
2023-02-27T11:40:58.943Z,1.25
2023-02-27T11:43:29.771Z,8.25
2023-02-27T11:46:04.713Z,0.00
2023-02-27T11:48:50.428Z,0.75
2023-02-27T11:51:43.750Z,0.00
2023-02-27T11:54:27.457Z,4.50
2023-02-27T11:57:00.301Z,8.25
2023-02-27T11:59:39.030Z,4.00
2023-02-27T12:02:16.320Z,9.00
2023-02-27T12:04:54.453Z,6.50
2023-02-27T12:07:27.097Z,6.00
2023-02-27T12:10:02.291Z,10.50
2023-02-27T12:12:36.810Z,3.00
2023-02-27T12:15:18.901Z,5.25
2023-02-27T12:17:49.772Z,15.00
2023-02-27T12:20:29.876Z,2.50
2023-02-27T12:22:57.778Z,1.25
2023-02-27T12:25:35.589Z,1.00
2023-02-27T12:28:18.934Z,3.00
2023-02-27T12:30:54.667Z,2.00
2023-02-27T12:33:32.833Z,4.00
2023-02-27T12:36:03.895Z,2.50
2023-02-27T12:38:35.774Z,10.75
2023-02-27T12:41:31.252Z,9.25
2023-02-27T12:44:21.921Z,6.00
2023-02-27T12:46:55.842Z,4.00
2023-02-27T12:49:35.752Z,25.75
2023-02-27T12:52:17.703Z,5.00
2023-02-27T12:54:56.016Z,5.00
2023-02-27T12:57:32.884Z,20.25
2023-02-27T13:00:13.307Z,10.25
2023-02-27T13:02:56.918Z,10.75
2023-02-27T13:05:35.399Z,5.00
2023-02-27T13:08:13.925Z,5.75
2023-02-27T13:10:45.877Z,2.75
2023-02-27T13:13:21.106Z,13.75
2023-02-27T13:15:55.668Z,2.00
2023-02-27T13:18:39.398Z,2.25
2023-02-27T13:21:13.618Z,1.00
2023-02-27T13:23:54.590Z,2.00
2023-02-27T13:26:26.578Z,1.00
2023-02-27T13:28:55.585Z,2.25
2023-02-27T13:31:37.390Z,1.25
2023-02-27T13:34:16.408Z,0.00
2023-02-27T13:36:49.822Z,4.50
2023-02-27T13:39:52.382Z,2.50
2023-02-27T13:42:53.100Z,23.00
2023-02-27T13:45:53.194Z,54.00
2023-02-27T13:48:47.645Z,57.75
2023-02-27T13:51:54.473Z,77.00
2023-02-27T13:54:32.108Z,37.75
2023-02-27T13:57:21.697Z,49.00
2023-02-27T14:00:02.033Z,28.25
2023-02-27T14:02:57.739Z,20.50
2023-02-27T14:05:44.618Z,50.50
2023-02-27T14:08:16.513Z,21.50
2023-02-27T14:10:57.817Z,13.75
2023-02-27T14:14:03.852Z,10.00
2023-02-27T14:17:00.529Z,16.25
2023-02-27T14:19:56.024Z,9.75
2023-02-27T14:22:46.512Z,9.75
2023-02-27T14:25:21.859Z,10.25
2023-02-27T14:27:56.888Z,6.25
2023-02-27T14:30:29.911Z,5.25
2023-02-27T14:33:02.681Z,5.25
2023-02-27T14:35:31.117Z,5.75
2023-02-27T14:38:08.492Z,6.00
2023-02-27T14:40:42.651Z,8.00
2023-02-27T14:43:21.371Z,2.75
2023-02-27T14:45:49.106Z,7.75
2023-02-27T14:48:27.910Z,4.75
2023-02-27T14:50:56.481Z,1.00
2023-02-27T14:53:28.019Z,2.25
2023-02-27T14:55:57.245Z,2.50
2023-02-27T14:58:25.623Z,14.00
2023-02-27T15:01:01.135Z,21.00
2023-02-27T15:03:33.312Z,24.50
2023-02-27T15:06:04.004Z,30.50
2023-02-27T15:08:39.592Z,42.00
2023-02-27T15:11:10.044Z,34.75
2023-02-27T15:13:42.552Z,26.50
2023-02-27T15:16:40.008Z,28.75
2023-02-27T15:19:17.345Z,23.25
2023-02-27T15:21:47.353Z,29.50
2023-02-27T15:24:33.117Z,29.25
2023-02-27T15:27:05.037Z,10.00
2023-02-27T15:29:36.759Z,9.25
2023-02-27T15:32:05.100Z,4.25
2023-02-27T15:34:32.727Z,6.75
2023-02-27T15:37:01.355Z,8.50
2023-02-27T15:39:32.276Z,23.00
2023-02-27T15:42:03.516Z,27.75
2023-02-27T15:44:37.444Z,24.25
2023-02-27T15:47:06.349Z,27.00
2023-02-27T15:49:34.302Z,21.50
2023-02-27T15:52:05.796Z,44.25
2023-02-27T15:54:36.612Z,82.25
2023-02-27T15:57:06.298Z,66.00
2023-02-27T15:59:40.864Z,91.33
2023-02-27T16:02:15.626Z,53.25
2023-02-27T16:04:47.043Z,80.25
2023-02-27T16:07:17.857Z,74.75
2023-02-27T16:09:51.041Z,76.00
2023-02-27T16:12:30.098Z,64.50
2023-02-27T16:15:28.067Z,19.25
2023-02-27T16:18:01.118Z,44.75
2023-02-27T16:20:47.042Z,41.00
2023-02-27T16:23:24.797Z,27.25
2023-02-27T16:26:05.272Z,22.75
2023-02-27T16:28:36.295Z,21.25
2023-02-27T16:31:23.828Z,32.50
2023-02-27T16:33:52.456Z,23.00
2023-02-27T16:36:21.237Z,32.25
2023-02-27T16:38:50.032Z,28.25
2023-02-27T16:41:21.736Z,24.00
2023-02-27T16:43:50.128Z,26.50
2023-02-27T16:46:19.572Z,23.25
2023-02-27T16:48:50.251Z,10.50
2023-02-27T16:51:21.219Z,22.50
2023-02-27T16:53:48.805Z,15.50
2023-02-27T16:56:21.476Z,17.50
2023-02-27T16:58:57.714Z,24.75
2023-02-27T17:01:25.529Z,46.50
2023-02-27T17:03:52.612Z,63.25
2023-02-27T17:06:20.418Z,89.50
2023-02-27T17:08:48.410Z,61.50
2023-02-27T17:11:16.373Z,48.25
2023-02-27T17:13:43.609Z,42.00
2023-02-27T17:16:14.104Z,20.75
2023-02-27T17:18:41.131Z,40.25
2023-02-27T17:21:08.589Z,35.75
2023-02-27T17:23:36.409Z,37.75
2023-02-27T17:26:03.449Z,40.00
2023-02-27T17:28:30.318Z,51.00
2023-02-27T17:30:57.964Z,23.00
2023-02-27T17:33:27.524Z,3.75
2023-02-27T17:36:02.253Z,2.50
2023-02-27T17:38:29.228Z,2.50
2023-02-27T17:40:56.429Z,3.00
2023-02-27T17:43:24.167Z,4.25
2023-02-27T17:45:52.582Z,1.00
2023-02-27T17:48:20.036Z,3.75
2023-02-27T17:50:49.241Z,1.00
2023-02-27T17:53:16.175Z,6.50
2023-02-27T17:55:44.472Z,3.00
2023-02-27T17:58:11.699Z,2.50
2023-02-27T18:00:39.849Z,0.75
2023-02-27T18:03:06.813Z,1.00
2023-02-27T18:05:33.838Z,12.75
2023-02-27T18:08:02.062Z,6.75
2023-02-27T18:10:29.457Z,9.00
2023-02-27T18:12:56.833Z,5.25
2023-02-27T18:15:24.984Z,3.25
2023-02-27T18:17:52.035Z,2.50
2023-02-27T18:20:19.143Z,16.75
2023-02-27T18:22:46.678Z,5.00
2023-02-27T18:25:16.836Z,10.25
2023-02-27T18:27:45.037Z,9.00
2023-02-27T18:30:12.842Z,56.25
2023-02-27T18:32:40.012Z,19.25
2023-02-27T18:35:08.412Z,19.50
2023-02-27T18:37:35.650Z,3.75
2023-02-27T18:40:02.960Z,7.25
2023-02-27T18:42:32.415Z,2.25
2023-02-27T18:45:00.240Z,20.25
2023-02-27T18:47:30.190Z,6.75
2023-02-27T18:49:58.192Z,12.75
2023-02-27T18:52:26.563Z,7.75
2023-02-27T18:54:53.386Z,8.00
2023-02-27T18:57:20.293Z,20.00
2023-02-27T18:59:50.595Z,7.50
2023-02-27T19:02:18.839Z,20.25
2023-02-27T19:04:46.922Z,9.50
2023-02-27T19:07:15.576Z,13.00
2023-02-27T19:09:43.928Z,9.00
2023-02-27T19:12:12.384Z,6.25
2023-02-27T19:14:41.367Z,7.25
2023-02-27T19:17:09.996Z,8.50
2023-02-27T19:19:38.133Z,4.00
2023-02-27T19:22:06.253Z,12.75
2023-02-27T19:24:34.350Z,10.50
2023-02-27T19:27:02.152Z,10.25
2023-02-27T19:29:29.880Z,8.75
2023-02-27T19:31:58.359Z,8.25
2023-02-27T19:34:27.544Z,15.50
2023-02-27T19:36:54.891Z,10.50
2023-02-27T19:39:21.813Z,4.00
2023-02-27T19:41:48.991Z,6.25
2023-02-27T19:44:18.076Z,11.75
2023-02-27T19:46:46.060Z,3.75
2023-02-27T19:49:12.983Z,2.50
2023-02-27T19:51:41.952Z,2.75
2023-02-27T19:54:12.625Z,1.00
2023-02-27T19:56:40.016Z,3.50
2023-02-27T19:59:08.043Z,4.50
2023-02-27T20:01:36.671Z,3.50
2023-02-27T20:04:04.436Z,2.00
2023-02-27T20:06:32.871Z,5.00
2023-02-27T20:09:02.372Z,6.50
2023-02-27T20:11:32.490Z,6.25
2023-02-27T20:14:00.219Z,2.50
2023-02-27T20:16:28.533Z,3.25
2023-02-27T20:18:57.806Z,2.00
2023-02-27T20:21:24.982Z,3.00
2023-02-27T20:23:53.062Z,1.25
2023-02-27T20:26:24.899Z,1.50
2023-02-27T20:28:54.230Z,1.75
2023-02-27T20:31:24.286Z,2.00
2023-02-27T20:33:52.903Z,1.00
2023-02-27T20:36:21.782Z,9.00
2023-02-27T20:38:49.784Z,6.00
2023-02-27T20:41:20.158Z,4.75
2023-02-27T20:43:51.706Z,2.00
2023-02-27T20:46:22.806Z,3.50
2023-02-27T20:48:51.010Z,1.00
2023-02-27T20:51:20.977Z,3.75
2023-02-27T20:53:49.418Z,2.00
2023-02-27T20:56:20.934Z,2.50
2023-02-27T20:58:51.032Z,2.00
2023-02-27T21:01:19.844Z,3.25
2023-02-27T21:03:48.262Z,4.75
2023-02-27T21:06:17.120Z,6.75
2023-02-27T21:08:47.162Z,7.75
2023-02-27T21:11:16.891Z,12.50
2023-02-27T21:13:44.785Z,16.25
2023-02-27T21:16:15.590Z,8.75
2023-02-27T21:18:43.801Z,12.75
2023-02-27T21:21:15.051Z,8.50
2023-02-27T21:23:42.597Z,9.75
2023-02-27T21:26:10.355Z,14.75
2023-02-27T21:28:38.421Z,7.50
2023-02-27T21:31:07.577Z,7.75
2023-02-27T21:33:36.997Z,22.00
2023-02-27T21:36:05.654Z,11.00
2023-02-27T21:38:33.217Z,17.50
2023-02-27T21:41:05.579Z,11.50
2023-02-27T21:43:33.541Z,6.00
2023-02-27T21:46:05.155Z,11.00
2023-02-27T21:48:33.005Z,9.25
2023-02-27T21:51:02.556Z,15.75
2023-02-27T21:53:30.403Z,10.50
2023-02-27T21:56:04.998Z,11.50
2023-02-27T21:58:33.517Z,14.75
2023-02-27T22:01:01.795Z,10.50
2023-02-27T22:03:29.591Z,8.00
2023-02-27T22:05:58.135Z,8.50
2023-02-27T22:08:27.959Z,12.75
2023-02-27T22:10:57.584Z,15.25
2023-02-27T22:13:25.769Z,6.50
2023-02-27T22:15:53.277Z,12.00
2023-02-27T22:18:20.643Z,7.50
2023-02-27T22:20:48.921Z,9.75
2023-02-27T22:23:17.331Z,14.00
2023-02-27T22:25:45.841Z,10.00
2023-02-27T22:28:14.014Z,8.25
2023-02-27T22:30:41.344Z,13.50
2023-02-27T22:33:08.950Z,15.25
2023-02-27T22:35:36.486Z,14.00
2023-02-27T22:38:03.878Z,22.00
2023-02-27T22:40:31.257Z,20.75
2023-02-27T22:43:01.312Z,18.00
2023-02-27T22:45:28.273Z,13.25
2023-02-27T22:47:55.992Z,18.25
2023-02-27T22:50:23.071Z,22.25
2023-02-27T22:52:50.862Z,22.00
2023-02-27T22:55:18.533Z,22.50
2023-02-27T22:57:45.807Z,17.25
2023-02-27T23:00:14.771Z,18.75
2023-02-27T23:02:42.383Z,19.75
2023-02-27T23:05:10.530Z,16.00
2023-02-27T23:07:37.978Z,18.00
2023-02-27T23:10:06.626Z,17.00
2023-02-27T23:12:34.282Z,20.50
2023-02-27T23:15:02.328Z,19.25
2023-02-27T23:17:31.306Z,16.75
2023-02-27T23:19:58.203Z,20.25
2023-02-27T23:22:25.669Z,21.00
2023-02-27T23:24:54.198Z,21.75
2023-02-27T23:27:26.165Z,20.25
2023-02-27T23:29:54.255Z,19.25
2023-02-27T23:32:21.953Z,18.75
2023-02-27T23:34:51.216Z,16.50
2023-02-27T23:37:18.742Z,21.25
2023-02-27T23:39:46.095Z,18.25
2023-02-27T23:42:13.511Z,20.00
2023-02-27T23:44:41.227Z,19.25
2023-02-27T23:47:08.613Z,20.75
2023-02-27T23:49:36.195Z,15.00
2023-02-27T23:52:06.534Z,18.75
2023-02-27T23:54:34.463Z,13.75
2023-02-27T23:57:01.759Z,19.00
2023-02-27T23:59:29.314Z,21.50
